Time;durP1;ratioP1;P1;durP2;ratioP2;P2;SDS_P1;SDS_P2;PMS_P1;PMS_P2;Temp;Humidity;BMP_temperature;BMP_pressure;BME280_temperature;BME280_humidity;BME280_pressure;Samples;Min_cycle;Max_cycle;Signal;HPM_P1;HPM_P2
2022/04/16 00:02:00;;;;;;;34.55;17.33;;;;;;;7.88;76.52;101913.78;8606464;33;20533;-73
2022/04/16 00:07:04;;;;;;;31.52;16.27;;;;;;;7.81;76.75;101915.00;8605192;33;20976;-73
2022/04/16 00:12:09;;;;;;;30.08;16.48;;;;;;;7.71;76.99;101921.72;8607036;33;20408;-73
2022/04/16 00:17:14;;;;;;;31.00;17.70;;;;;;;7.69;76.93;101915.56;8603583;33;20452;-73
2022/04/16 00:22:17;;;;;;;31.42;18.25;;;;;;;7.63;77.10;101907.81;8601899;33;20165;-73
2022/04/16 00:27:20;;;;;;;34.80;18.42;;;;;;;7.56;77.35;101904.53;8600000;33;20403;-73
2022/04/16 00:32:24;;;;;;;30.33;17.15;;;;;;;7.65;77.56;101911.28;8598331;33;20463;-73
2022/04/16 00:37:27;;;;;;;33.03;18.13;;;;;;;7.60;77.25;101905.28;8599058;33;20416;-74
2022/04/16 00:42:33;;;;;;;36.22;18.92;;;;;;;7.57;77.42;101905.41;8598842;33;20461;-73
2022/04/16 00:47:37;;;;;;;37.42;17.55;;;;;;;7.52;77.85;101904.75;8600327;33;20854;-73
2022/04/16 00:52:41;;;;;;;31.83;17.73;;;;;;;7.53;78.03;101911.84;8602541;33;20981;-73
2022/04/16 00:57:44;;;;;;;33.88;17.92;;;;;;;7.69;77.94;101912.88;8602714;33;20436;-73
2022/04/16 01:02:49;;;;;;;31.45;17.27;;;;;;;7.80;77.78;101920.44;8599745;33;20261;-73
2022/04/16 01:07:58;;;;;;;27.65;15.55;;;;;;;7.90;77.42;101919.09;8596814;33;20472;-73
2022/04/16 01:13:04;;;;;;;31.77;16.30;;;;;;;7.92;77.50;101928.75;8598925;33;20474;-74
2022/04/16 01:18:09;;;;;;;29.83;17.13;;;;;;;7.89;77.42;101928.03;8600831;33;22305;-73
2022/04/16 01:23:15;;;;;;;30.40;17.00;;;;;;;7.96;77.09;101934.84;8602441;33;20596;-74
2022/04/16 01:28:18;;;;;;;32.53;16.17;;;;;;;8.05;76.85;101936.25;8602141;33;20197;-74
2022/04/16 01:33:22;;;;;;;28.00;15.65;;;;;;;8.04;76.49;101943.41;8603266;33;20173;-74
2022/04/16 01:38:27;;;;;;;27.42;15.57;;;;;;;7.93;76.26;101946.56;8602583;33;21096;-74
2022/04/16 01:43:30;;;;;;;26.25;15.73;;;;;;;7.93;76.30;101956.41;8599527;33;20189;-74
2022/04/16 01:48:33;;;;;;;27.20;15.40;;;;;;;7.92;76.40;101952.84;8598294;33;20545;-73
2022/04/16 01:53:38;;;;;;;28.23;15.25;;;;;;;7.92;76.08;101954.66;8599260;33;20400;-74
2022/04/16 01:58:43;;;;;;;35.92;19.23;;;;;;;7.94;76.27;101960.81;8600026;33;20232;-74
2022/04/16 02:03:46;;;;;;;34.47;18.60;;;;;;;7.86;75.53;101968.31;8603858;33;20446;-74
2022/04/16 02:08:51;;;;;;;35.50;19.88;;;;;;;7.72;75.42;101967.13;8605301;33;20462;-74
2022/04/16 02:13:54;;;;;;;33.58;18.10;;;;;;;7.78;75.19;101970.47;8608775;33;20467;-74
2022/04/16 02:18:58;;;;;;;31.77;17.83;;;;;;;7.85;74.99;101970.13;8607414;33;21191;-74
2022/04/16 02:24:04;;;;;;;34.65;18.98;;;;;;;7.75;75.04;101970.59;8606933;33;20353;-74
2022/04/16 02:29:09;;;;;;;35.17;17.98;;;;;;;7.80;74.79;101969.47;8603131;33;20402;-74
2022/04/16 02:34:12;;;;;;;29.67;16.70;;;;;;;7.55;74.72;101974.16;8601605;33;20142;-74
2022/04/16 02:39:16;;;;;;;35.42;16.98;;;;;;;7.64;74.54;101979.09;8593331;33;20227;-74
2022/04/16 02:49:40;;;;;;;28.13;16.50;;;;;;;7.52;74.64;101980.50;8593866;33;21987;-73
2022/04/16 02:54:45;;;;;;;26.80;14.18;;;;;;;7.41;74.71;101983.63;8593924;33;21040;-73
2022/04/16 02:59:48;;;;;;;30.70;15.45;;;;;;;7.41;74.52;101988.13;8594357;33;20594;-74
2022/04/16 03:04:51;;;;;;;29.15;13.57;;;;;;;7.38;74.67;101996.25;8596852;33;20147;-74
2022/04/16 03:09:55;;;;;;;27.75;14.73;;;;;;;7.35;74.92;101999.94;8595633;33;20155;-74
2022/04/16 03:20:20;;;;;;;29.83;15.55;;;;;;;7.27;74.45;102010.06;8602541;33;20234;-74
2022/04/16 03:25:25;;;;;;;24.27;13.73;;;;;;;7.15;73.89;102023.94;8612262;33;20174;-74
2022/04/16 03:30:29;;;;;;;24.23;14.07;;;;;;;6.90;72.34;102013.38;8619541;33;20408;-74
2022/04/16 03:35:32;;;;;;;21.83;12.48;;;;;;;6.71;71.99;102018.53;8618626;33;20241;-75
2022/04/16 03:40:37;;;;;;;17.70;10.80;;;;;;;6.63;70.78;102025.00;8619431;33;20509;-74
2022/04/16 03:45:40;;;;;;;18.20;9.95;;;;;;;6.43;69.86;102032.06;8607612;33;20407;-74
2022/04/16 03:50:43;;;;;;;15.90;9.20;;;;;;;6.21;70.26;102032.00;8607298;33;20891;-74
2022/04/16 04:01:05;;;;;;;17.33;9.15;;;;;;;6.12;69.83;102051.88;8554891;33;20139;-73
2022/04/16 04:06:09;;;;;;;18.02;9.98;;;;;;;5.86;70.19;102056.31;8601091;33;20467;-73
2022/04/16 04:11:14;;;;;;;17.50;9.82;;;;;;;5.89;70.36;102050.00;8601805;33;20409;-74
2022/04/16 04:16:19;;;;;;;15.68;8.38;;;;;;;5.71;70.70;102060.41;8603060;33;20183;-74
2022/04/16 04:21:22;;;;;;;16.98;8.60;;;;;;;5.75;70.62;102058.47;8598717;33;21516;-74
2022/04/16 04:26:26;;;;;;;19.80;9.63;;;;;;;5.65;70.79;102062.38;8600073;33;20501;-73
2022/04/16 04:31:29;;;;;;;17.02;9.55;;;;;;;5.56;71.20;102065.38;8600778;33;20434;-74
2022/04/16 04:36:33;;;;;;;16.05;8.32;;;;;;;5.50;71.57;102072.63;8597538;33;20464;-74
2022/04/16 04:41:37;;;;;;;18.20;8.77;;;;;;;5.31;71.94;102076.81;8598167;33;20413;-74
2022/04/16 04:46:40;;;;;;;17.08;9.15;;;;;;;5.29;71.88;102086.66;8572056;33;20189;-74
2022/04/16 04:51:45;;;;;;;14.60;8.65;;;;;;;5.28;71.64;102090.25;8590720;33;20666;-74
2022/04/16 04:56:49;;;;;;;12.75;8.05;;;;;;;5.19;70.90;102106.53;8588366;33;21493;-73
2022/04/16 05:01:52;;;;;;;11.00;6.95;;;;;;;5.10;70.64;102117.47;8591488;33;20445;-73
2022/04/16 05:06:56;;;;;;;11.40;7.40;;;;;;;5.11;70.29;102125.41;8599998;33;20418;-73
2022/04/16 05:12:01;;;;;;;15.95;8.35;;;;;;;5.12;70.29;102121.81;8603734;33;20394;-73
2022/04/16 05:17:05;;;;;;;14.40;7.28;;;;;;;5.19;70.00;102135.84;8608567;33;20585;-73
2022/04/16 05:22:08;;;;;;;11.32;6.68;;;;;;;4.93;69.85;102134.78;8599869;33;20131;-73
2022/04/16 05:27:12;;;;;;;12.80;6.38;;;;;;;4.93;69.02;102144.56;8595275;33;20489;-74
2022/04/16 05:32:16;;;;;;;8.90;5.30;;;;;;;4.94;68.21;102141.88;8596495;33;20293;-73
2022/04/16 05:37:19;;;;;;;8.98;5.68;;;;;;;4.99;67.54;102145.31;8595167;33;20170;-73
2022/04/16 05:42:23;;;;;;;8.95;5.55;;;;;;;4.93;66.93;102147.25;8595456;33;20214;-74
2022/04/16 05:47:26;;;;;;;6.93;5.28;;;;;;;5.00;66.84;102165.69;8596142;33;20556;-74
2022/04/16 05:52:29;;;;;;;8.13;5.75;;;;;;;5.05;66.60;102163.78;8596515;33;20416;-74
2022/04/16 05:57:34;;;;;;;10.95;6.28;;;;;;;5.10;66.41;102174.31;8592453;33;20426;-73
2022/04/16 06:02:37;;;;;;;9.35;6.43;;;;;;;5.33;65.97;102178.94;8597796;33;21941;-73
2022/04/16 06:07:40;;;;;;;8.50;6.10;;;;;;;5.32;64.79;102181.63;8603010;33;21232;-73
2022/04/16 06:12:45;;;;;;;11.55;7.00;;;;;;;5.35;64.43;102195.75;8603293;33;20402;-73
2022/04/16 06:17:48;;;;;;;8.82;6.05;;;;;;;5.58;63.75;102204.81;8602223;33;20147;-75
2022/04/16 06:22:51;;;;;;;7.65;5.57;;;;;;;5.62;62.69;102211.78;8602475;33;20136;-73
2022/04/16 06:27:55;;;;;;;9.30;5.57;;;;;;;5.71;62.33;102207.06;8600870;33;20703;-74
2022/04/16 06:32:58;;;;;;;6.70;5.20;;;;;;;5.83;61.95;102205.78;8600444;33;20428;-75
2022/04/16 06:38:01;;;;;;;8.15;5.25;;;;;;;5.84;60.90;102212.00;8600570;33;20453;-75
2022/04/16 06:43:06;;;;;;;10.73;6.22;;;;;;;6.09;59.79;102217.41;8600103;33;20434;-75
2022/04/16 06:48:09;;;;;;;10.07;6.28;;;;;;;6.32;59.49;102222.84;8591315;33;20637;-75
2022/04/16 06:53:12;;;;;;;8.57;6.38;;;;;;;6.48;56.95;102225.88;8594955;33;20171;-75
2022/04/16 06:58:16;;;;;;;7.55;5.63;;;;;;;6.69;55.94;102240.28;8593400;33;20205;-75
2022/04/16 07:03:20;;;;;;;9.82;6.45;;;;;;;6.71;54.43;102232.19;8600110;33;20455;-74
2022/04/16 07:08:23;;;;;;;7.22;5.25;;;;;;;7.19;53.87;102218.88;8597672;33;20151;-75
2022/04/16 07:13:29;;;;;;;5.45;4.05;;;;;;;7.19;49.09;102213.53;8598479;33;20259;-75
2022/04/16 07:18:32;;;;;;;5.05;4.10;;;;;;;7.21;49.80;102221.47;8595942;33;20542;-75
2022/04/16 07:23:35;;;;;;;8.85;3.97;;;;;;;7.24;48.15;102219.56;8594450;33;21269;-75
2022/04/16 07:28:40;;;;;;;7.10;3.55;;;;;;;7.02;47.73;102227.53;8595921;33;21035;-74
2022/04/16 07:33:43;;;;;;;3.70;3.40;;;;;;;7.36;48.02;102217.38;8593699;33;20214;-75
2022/04/16 07:38:46;;;;;;;3.97;3.58;;;;;;;7.46;46.76;102229.44;8569936;33;20183;-74
2022/04/16 07:43:50;;;;;;;3.25;2.90;;;;;;;7.56;46.31;102243.31;8594390;33;20186;-75
2022/04/16 07:48:54;;;;;;;3.05;2.60;;;;;;;7.80;44.36;102244.19;8595239;33;20570;-75
2022/04/16 07:53:57;;;;;;;3.15;2.40;;;;;;;8.13;43.28;102240.13;8595296;33;20282;-75
2022/04/16 07:59:02;;;;;;;5.10;2.70;;;;;;;8.20;42.41;102250.56;8598714;33;21164;-75
2022/04/16 08:04:05;;;;;;;2.45;2.10;;;;;;;8.35;43.11;102242.78;8604029;33;20199;-74
2022/04/16 08:09:08;;;;;;;2.20;2.00;;;;;;;8.55;41.94;102249.97;8579084;33;20536;-75
2022/04/16 08:14:12;;;;;;;1.70;1.60;;;;;;;8.54;41.25;102250.06;8598784;33;20484;-74
2022/04/16 08:19:15;;;;;;;2.13;1.63;;;;;;;9.11;40.21;102250.25;8599627;33;20423;-75
2022/04/16 08:24:38;;;;;;;2.45;1.90;;;;;;;9.06;41.15;102264.72;8596424;33;20401;-75
2022/04/16 08:29:43;;;;;;;3.10;2.00;;;;;;;9.24;40.41;102268.38;8597222;33;20398;-74
2022/04/16 08:34:46;;;;;;;2.55;1.80;;;;;;;9.59;40.54;102262.31;8606436;33;20140;-75
2022/04/16 08:39:49;;;;;;;1.55;1.33;;;;;;;9.99;38.94;102269.38;8614470;33;20149;-75
2022/04/16 08:44:53;;;;;;;1.67;1.58;;;;;;;9.94;39.79;102261.53;8602098;33;20198;-74
2022/04/16 08:49:58;;;;;;;3.45;1.60;;;;;;;10.30;38.86;102260.66;8599149;33;20448;-74
2022/04/16 08:55:03;;;;;;;1.75;1.65;;;;;;;10.44;37.46;102256.41;8599247;33;20255;-74
2022/04/16 09:00:13;;;;;;;3.78;2.50;;;;;;;10.68;37.84;102265.91;8600919;33;20205;-74
2022/04/16 09:05:20;;;;;;;3.28;1.75;;;;;;;11.12;38.11;102273.47;8603394;33;20461;-74
2022/04/16 09:10:27;;;;;;;1.73;1.63;;;;;;;11.51;36.98;102283.03;8605559;33;20909;-73
2022/04/16 09:15:34;;;;;;;1.48;1.38;;;;;;;11.55;35.39;102273.84;8602230;33;20478;-74
2022/04/16 09:20:39;;;;;;;1.10;1.10;;;;;;;11.99;36.28;102270.47;8602903;33;20252;-74
2022/04/16 09:25:43;;;;;;;2.00;1.23;;;;;;;12.51;34.28;102280.06;8605473;33;20411;-74
2022/04/16 09:30:53;;;;;;;1.90;1.48;;;;;;;12.51;34.20;102283.63;8603115;33;20397;-74
2022/04/16 09:35:57;;;;;;;3.70;2.20;;;;;;;12.52;33.96;102281.81;8603276;33;20441;-74
2022/04/16 09:41:08;;;;;;;5.65;3.25;;;;;;;12.37;34.01;102279.06;8604167;33;20392;-74
2022/04/16 09:46:13;;;;;;;3.47;2.10;;;;;;;12.29;32.96;102272.38;8605664;33;20459;-74
2022/04/16 09:51:19;;;;;;;1.90;1.40;;;;;;;12.32;32.44;102261.44;8616739;33;20210;-74
2022/04/16 09:56:28;;;;;;;1.52;1.20;;;;;;;12.17;33.34;102265.84;8615984;33;20272;-74
2022/04/16 10:01:34;;;;;;;1.30;1.20;;;;;;;12.39;33.10;102270.88;8617098;33;20456;-74
2022/04/16 10:06:38;;;;;;;1.05;1.02;;;;;;;12.89;32.54;102266.97;8617010;33;21020;-74
2022/04/16 10:12:59;;;;;;;1.67;1.00;;;;;;;12.65;32.18;102265.78;8616683;33;20175;-74
2022/04/16 10:17:25;;;;;;;1.52;1.42;;;;;;;13.02;32.20;102277.88;8604005;33;20173;-74
2022/04/16 10:22:29;;;;;;;3.70;1.25;;;;;;;13.18;31.98;102267.00;8613356;33;20595;-74
2022/04/16 10:27:39;;;;;;;1.40;1.30;;;;;;;13.07;31.75;102272.19;8607401;33;20187;-74
2022/04/16 10:32:45;;;;;;;1.08;1.00;;;;;;;13.17;32.00;102262.56;8606204;33;20577;-74
2022/04/16 10:37:54;;;;;;;1.77;1.25;;;;;;;13.57;30.21;102278.97;8605923;33;20186;-74
2022/04/16 10:43:01;;;;;;;3.33;2.05;;;;;;;13.55;29.67;102262.00;8604605;33;20232;-73
2022/04/16 10:48:09;;;;;;;1.50;1.10;;;;;;;13.69;30.10;102257.44;8603317;33;20175;-74
2022/04/16 10:53:12;;;;;;;1.13;1.02;;;;;;;14.08;29.09;102250.41;8602098;33;20555;-74
2022/04/16 10:58:16;;;;;;;1.20;1.10;;;;;;;13.87;29.13;102258.06;8600475;33;20489;-74
2022/04/16 11:03:30;;;;;;;4.30;1.35;;;;;;;13.97;27.05;102242.13;8601136;33;20607;-74
2022/04/16 11:08:35;;;;;;;1.25;0.93;;;;;;;14.26;27.87;102251.03;8596717;33;20776;-74
2022/04/16 11:13:44;;;;;;;1.17;1.10;;;;;;;14.42;28.75;102250.00;8598761;33;20148;-74
2022/04/16 11:18:49;;;;;;;1.15;1.00;;;;;;;14.70;27.96;102248.97;8599811;33;20182;-74
2022/04/16 11:23:53;;;;;;;1.73;1.13;;;;;;;15.15;26.67;102246.72;8599320;33;20139;-73
2022/04/16 11:34:23;;;;;;;0.82;0.82;;;;;;;16.81;25.00;102229.81;8599511;33;20505;-74
2022/04/16 11:39:45;;;;;;;1.05;1.00;;;;;;;17.37;24.57;102232.63;8597063;33;20477;-74
2022/04/16 11:44:50;;;;;;;1.15;0.85;;;;;;;17.29;24.02;102223.38;8598187;33;20320;-74
2022/04/16 11:49:59;;;;;;;1.00;0.90;;;;;;;16.85;24.07;102228.59;8591874;33;20432;-74
2022/04/16 11:55:05;;;;;;;1.13;0.88;;;;;;;17.32;22.99;102223.09;8591613;33;20578;-74
2022/04/16 12:00:10;;;;;;;1.80;0.90;;;;;;;17.80;23.32;102215.50;8590680;33;20145;-74
2022/04/16 12:05:17;;;;;;;0.80;0.80;;;;;;;18.46;23.27;102225.44;8593405;33;20442;-74
2022/04/16 12:10:28;;;;;;;0.98;0.90;;;;;;;18.71;22.81;102216.88;8598764;33;20834;-74
2022/04/16 12:15:31;;;;;;;1.08;0.88;;;;;;;19.42;22.22;102216.09;8602805;33;20142;-74
2022/04/16 12:20:41;;;;;;;1.15;0.88;;;;;;;18.93;23.24;102213.16;8605239;33;20527;-74
2022/04/16 12:25:44;;;;;;;1.33;0.82;;;;;;;18.56;22.85;102212.75;8546873;33;20418;-74
2022/04/16 12:30:50;;;;;;;0.95;0.90;;;;;;;19.00;23.12;102219.78;8591349;33;20437;-74
2022/04/16 12:35:56;;;;;;;0.90;0.90;;;;;;;19.12;22.65;102215.13;8604136;33;20435;-75
2022/04/16 12:41:08;;;;;;;0.82;0.82;;;;;;;19.48;23.06;102218.25;8604603;33;20632;-74
2022/04/16 12:46:11;;;;;;;1.10;1.00;;;;;;;18.97;23.70;102206.44;8602010;33;21116;-75
2022/04/16 12:51:15;;;;;;;2.30;1.15;;;;;;;19.21;23.24;102214.28;8612922;33;20452;-73
2022/04/16 12:56:18;;;;;;;1.20;1.10;;;;;;;19.08;24.14;102202.75;8603605;33;21259;-74
2022/04/16 13:01:22;;;;;;;1.20;1.10;;;;;;;20.34;22.85;102194.88;8603190;33;20428;-74
2022/04/16 13:06:27;;;;;;;2.10;1.00;;;;;;;20.79;22.11;102186.03;8603285;33;20171;-73
2022/04/16 13:11:30;;;;;;;1.13;1.00;;;;;;;19.98;21.61;102182.78;8603549;33;20194;-74
2022/04/16 13:16:33;;;;;;;1.10;1.00;;;;;;;19.57;22.86;102178.44;8578307;33;20151;-74
2022/04/16 13:21:37;;;;;;;2.03;1.17;;;;;;;19.36;23.11;102171.19;8603771;33;20239;-74
2022/04/16 13:26:41;;;;;;;1.00;1.00;;;;;;;19.42;23.11;102178.81;8615322;33;21954;-74
2022/04/16 13:31:44;;;;;;;1.23;1.10;;;;;;;19.14;23.82;102172.28;8616000;33;20165;-74
2022/04/16 13:36:49;;;;;;;1.33;1.10;;;;;;;18.76;23.62;102168.31;8615381;33;20408;-74
2022/04/16 13:41:52;;;;;;;1.15;1.00;;;;;;;18.61;23.82;102164.22;8619359;33;20421;-74
2022/04/16 13:46:56;;;;;;;1.85;0.90;;;;;;;18.73;23.15;102171.31;8623602;33;20426;-75
2022/04/16 13:52:01;;;;;;;3.05;1.23;;;;;;;18.54;24.00;102163.00;8626087;33;20238;-74
2022/04/16 13:57:05;;;;;;;1.67;1.40;;;;;;;18.99;23.37;102155.41;8624598;33;20219;-74
2022/04/16 14:02:09;;;;;;;1.88;1.10;;;;;;;19.14;23.65;102142.31;8622653;33;20478;-74
2022/04/16 14:07:13;;;;;;;2.00;1.10;;;;;;;18.67;23.24;102141.03;8617570;33;20433;-74
2022/04/16 14:12:17;;;;;;;3.20;1.30;;;;;;;18.78;23.86;102133.66;8620058;33;20902;-73
2022/04/16 14:17:20;;;;;;;1.23;1.13;;;;;;;18.30;23.69;102131.53;8613431;33;20600;-74
2022/04/16 14:22:24;;;;;;;1.08;0.80;;;;;;;18.80;23.78;102126.25;8605440;33;20192;-73
2022/04/16 14:27:27;;;;;;;1.35;1.30;;;;;;;18.57;23.92;102124.66;8615652;33;20439;-74
2022/04/16 14:32:30;;;;;;;1.20;1.10;;;;;;;18.53;23.63;102132.22;8602537;33;20456;-74
2022/04/16 14:37:35;;;;;;;1.60;1.05;;;;;;;18.46;23.11;102122.88;8601343;33;20422;-74
2022/04/16 14:42:38;;;;;;;1.95;1.08;;;;;;;18.31;23.89;102118.78;8600921;33;20143;-74
2022/04/16 14:47:42;;;;;;;1.50;1.08;;;;;;;18.25;23.94;102119.31;8599946;33;20183;-74
2022/04/16 14:52:46;;;;;;;1.40;1.13;;;;;;;18.41;23.73;102116.97;8600291;33;20132;-74
2022/04/16 14:57:49;;;;;;;1.63;1.25;;;;;;;17.82;24.62;102102.06;8600972;33;20438;-74
2022/04/16 15:02:52;;;;;;;1.50;1.40;;;;;;;17.74;23.43;102099.13;8598156;33;21111;-74
2022/04/16 15:07:56;;;;;;;1.67;1.25;;;;;;;18.71;24.83;102099.81;8598872;33;20413;-74
2022/04/16 15:12:59;;;;;;;1.20;1.10;;;;;;;18.48;22.79;102093.66;8578572;33;20566;-74
2022/04/16 15:18:03;;;;;;;1.48;1.20;;;;;;;17.89;22.73;102081.53;8603815;33;20131;-74
2022/04/16 15:23:07;;;;;;;2.17;1.38;;;;;;;17.80;22.98;102095.91;8605572;33;20604;-74
2022/04/16 15:28:13;;;;;;;1.83;1.30;;;;;;;18.18;23.33;102080.88;8604419;33;20240;-74
2022/04/16 15:33:16;;;;;;;1.25;1.15;;;;;;;18.54;22.52;102078.66;8579233;33;20228;-74
2022/04/16 15:38:22;;;;;;;1.50;1.40;;;;;;;17.97;22.83;102078.19;8603880;33;20356;-74
2022/04/16 15:43:25;;;;;;;2.85;1.58;;;;;;;17.76;23.46;102069.13;8605317;33;20478;-74
2022/04/16 15:48:28;;;;;;;1.83;1.73;;;;;;;17.71;23.49;102066.78;8604115;33;21055;-74
2022/04/16 15:53:33;;;;;;;3.25;1.40;;;;;;;17.65;23.10;102061.88;8605508;33;20426;-73
2022/04/16 15:58:36;;;;;;;1.55;1.45;;;;;;;17.72;23.40;102065.81;8601487;33;20467;-73
2022/04/16 16:03:39;;;;;;;1.60;1.50;;;;;;;17.04;23.75;102063.25;8603144;33;20544;-74
2022/04/16 16:08:51;;;;;;;2.10;1.75;;;;;;;17.23;24.67;102059.91;8606164;33;20443;-73
2022/04/16 16:13:54;;;;;;;2.10;1.88;;;;;;;17.82;24.57;102058.56;8608154;33;20235;-74
2022/04/16 16:18:57;;;;;;;1.85;1.50;;;;;;;17.15;24.34;102062.41;8604317;33;20152;-74
2022/04/16 16:24:01;;;;;;;1.95;1.70;;;;;;;17.07;25.08;102056.72;8595982;33;20692;-73
2022/04/16 16:29:05;;;;;;;1.80;1.70;;;;;;;17.30;24.40;102057.53;8598243;33;20513;-73
2022/04/16 16:34:08;;;;;;;1.88;1.52;;;;;;;17.29;25.42;102058.53;8599593;33;20440;-74
2022/04/16 16:39:12;;;;;;;1.75;1.48;;;;;;;16.92;24.39;102064.28;8603350;33;20139;-73
2022/04/16 16:44:16;;;;;;;6.40;1.92;;;;;;;17.03;25.48;102056.13;8599949;33;20593;-74
2022/04/16 16:49:20;;;;;;;3.65;1.85;;;;;;;16.60;25.60;102042.47;8599721;33;20210;-74
2022/04/16 16:54:26;;;;;;;2.88;2.58;;;;;;;16.43;25.95;102038.41;8601179;33;20504;-74
2022/04/16 16:59:29;;;;;;;2.25;1.95;;;;;;;16.30;25.76;102041.22;8601758;33;20214;-74
2022/04/16 17:09:55;;;;;;;2.65;1.60;;;;;;;15.48;26.32;102043.06;8606135;33;20408;-74
2022/04/16 17:20:19;;;;;;;1.95;1.77;;;;;;;15.38;27.14;102044.72;8619379;33;20165;-74
2022/04/16 17:25:24;;;;;;;3.88;1.95;;;;;;;15.17;28.28;102055.28;8621499;33;20217;-73
2022/04/16 17:30:28;;;;;;;3.20;2.55;;;;;;;14.63;29.18;102056.50;8620402;33;20189;-74
2022/04/16 17:35:33;;;;;;;5.65;2.92;;;;;;;14.32;30.11;102064.06;8622175;33;21204;-74
2022/04/16 17:40:37;;;;;;;3.67;2.72;;;;;;;14.09;31.59;102062.94;8623681;33;20246;-74
2022/04/16 17:45:43;;;;;;;3.60;2.60;;;;;;;13.63;32.96;102065.25;8617402;33;20442;-73
2022/04/16 17:50:46;;;;;;;6.80;4.00;;;;;;;13.22;33.78;102071.56;8618515;33;20194;-74
2022/04/16 17:55:51;;;;;;;7.50;4.68;;;;;;;12.78;34.63;102067.16;8616307;33;20232;-74
2022/04/16 18:00:55;;;;;;;6.13;4.60;;;;;;;12.32;36.32;102070.09;8616182;33;20175;-75
2022/04/16 18:05:58;;;;;;;4.03;3.55;;;;;;;11.93;37.21;102068.84;8603286;33;20149;-74
2022/04/16 18:11:02;;;;;;;3.78;2.72;;;;;;;11.76;38.02;102077.03;8607426;33;20200;-75
2022/04/16 18:16:05;;;;;;;3.42;3.00;;;;;;;11.45;38.23;102082.41;8607836;33;21211;-73
2022/04/16 18:21:09;;;;;;;4.82;3.33;;;;;;;11.28;38.99;102083.38;8619713;33;20153;-75
2022/04/16 18:26:19;;;;;;;5.72;3.75;;;;;;;11.06;39.32;102089.06;8605259;33;20401;-74
2022/04/16 18:31:23;;;;;;;6.53;4.07;;;;;;;10.89;39.92;102085.56;8605619;33;20597;-75
2022/04/16 18:36:27;;;;;;;7.75;5.43;;;;;;;10.68;40.61;102090.31;8605133;33;20421;-75
2022/04/16 18:41:33;;;;;;;5.65;3.63;;;;;;;10.56;40.56;102106.16;8606786;33;20171;-75
2022/04/16 18:46:36;;;;;;;9.32;5.28;;;;;;;10.44;41.18;102111.31;8606209;33;20360;-78
2022/04/16 18:51:39;;;;;;;6.43;5.05;;;;;;;10.36;41.84;102117.94;8610035;33;20186;-75
2022/04/16 18:56:43;;;;;;;6.38;4.95;;;;;;;10.24;42.28;102123.97;8609293;33;21213;-74
2022/04/16 19:07:07;;;;;;;5.07;4.38;;;;;;;9.99;42.44;102112.78;8609560;33;20432;-75
2022/04/16 19:12:12;;;;;;;4.68;3.70;;;;;;;9.87;43.26;102123.19;8584837;33;20597;-75
2022/04/16 19:17:16;;;;;;;3.50;3.05;;;;;;;9.75;43.35;102123.78;8608119;33;22036;-75
2022/04/16 19:22:21;;;;;;;8.88;4.97;;;;;;;9.60;43.80;102121.84;8611439;33;20712;-75
2022/04/16 19:27:25;;;;;;;8.98;6.43;;;;;;;9.53;43.91;102123.97;8608349;33;20181;-75
2022/04/16 19:32:28;;;;;;;16.02;8.50;;;;;;;9.48;43.94;102126.00;8606965;33;20951;-75
2022/04/16 19:37:31;;;;;;;12.32;9.57;;;;;;;9.38;44.27;102130.97;8607343;33;20908;-74
2022/04/16 19:42:36;;;;;;;8.35;6.32;;;;;;;9.32;44.47;102125.88;8608899;33;20930;-74
2022/04/16 19:47:39;;;;;;;42.58;24.85;;;;;;;9.20;44.73;102121.97;8607408;33;20201;-76
2022/04/16 19:52:43;;;;;;;178.50;89.97;;;;;;;9.10;45.11;102130.53;8605585;33;20236;-75
2022/04/16 19:57:47;;;;;;;212.55;107.40;;;;;;;8.99;45.50;102139.94;8606408;33;20607;-75
2022/04/16 20:02:50;;;;;;;167.52;95.00;;;;;;;8.83;46.02;102131.75;8606849;33;20477;-76
2022/04/16 20:07:54;;;;;;;29.88;18.45;;;;;;;8.72;45.80;102131.38;8607053;33;20856;-75
2022/04/16 20:13:02;;;;;;;8.70;6.35;;;;;;;8.66;45.75;102136.13;8607458;33;20182;-75
2022/04/16 20:18:05;;;;;;;7.78;5.95;;;;;;;8.69;45.92;102126.13;8606594;33;20149;-75
2022/04/16 20:23:08;;;;;;;6.53;5.28;;;;;;;8.64;46.05;102136.22;8606358;33;20854;-75
2022/04/16 20:28:14;;;;;;;7.70;5.75;;;;;;;8.56;46.21;102133.00;8598291;33;20458;-75
2022/04/16 20:33:17;;;;;;;7.78;5.80;;;;;;;8.55;46.57;102126.75;8600049;33;20156;-75
2022/04/16 20:38:20;;;;;;;7.90;6.18;;;;;;;8.45;46.80;102129.88;8603690;33;20246;-75
2022/04/16 20:48:45;;;;;;;9.20;6.45;;;;;;;8.26;46.96;102133.38;8603031;33;21333;-75
2022/04/16 20:53:48;;;;;;;7.65;6.32;;;;;;;8.23;47.08;102133.53;8603469;33;20195;-75
2022/04/16 20:58:52;;;;;;;8.98;6.57;;;;;;;8.11;47.70;102128.69;8602932;33;20481;-75
2022/04/16 21:03:55;;;;;;;8.82;6.82;;;;;;;8.03;47.73;102137.03;8603301;33;20502;-74
2022/04/16 21:09:00;;;;;;;9.52;6.47;;;;;;;7.99;48.03;102127.41;8605958;33;20913;-75
2022/04/16 21:14:05;;;;;;;9.32;6.63;;;;;;;8.01;48.17;102132.69;8606115;33;20190;-75
2022/04/16 21:19:08;;;;;;;8.85;6.68;;;;;;;7.95;47.96;102125.78;8606538;33;20454;-75
2022/04/16 21:24:11;;;;;;;9.60;6.60;;;;;;;8.00;48.34;102122.91;8606420;33;20458;-76
2022/04/16 21:29:15;;;;;;;13.27;9.27;;;;;;;7.95;48.47;102123.09;8605413;33;20436;-76
2022/04/16 21:34:19;;;;;;;14.00;10.40;;;;;;;7.85;48.69;102116.44;8606238;33;20435;-75
2022/04/16 21:39:22;;;;;;;23.50;17.77;;;;;;;7.86;48.79;102128.84;8606713;33;20421;-76
2022/04/16 21:44:28;;;;;;;24.75;16.48;;;;;;;7.81;49.09;102123.69;8606368;33;20151;-75
2022/04/16 21:49:33;;;;;;;26.02;18.15;;;;;;;7.77;49.35;102126.56;8606580;33;20246;-75
2022/04/16 21:54:37;;;;;;;26.48;18.02;;;;;;;7.64;49.78;102116.38;8605805;33;20183;-76
2022/04/16 21:59:42;;;;;;;25.25;15.95;;;;;;;7.63;50.08;102114.66;8605974;33;20319;-75
2022/04/16 22:04:45;;;;;;;18.88;14.07;;;;;;;7.53;50.04;102120.44;8605427;33;20198;-75
2022/04/16 22:09:48;;;;;;;22.10;12.65;;;;;;;7.45;50.43;102112.72;8602267;33;20146;-76
2022/04/16 22:14:52;;;;;;;18.65;13.48;;;;;;;7.28;50.87;102118.75;8616938;33;20190;-76
2022/04/16 22:19:55;;;;;;;19.15;12.98;;;;;;;7.17;50.89;102129.84;8619711;33;20479;-76
2022/04/16 22:24:58;;;;;;;18.88;12.95;;;;;;;7.15;51.26;102131.69;8593825;33;21189;-75
2022/04/16 22:30:03;;;;;;;17.55;13.05;;;;;;;7.19;51.18;102119.97;8611226;33;20232;-75
2022/04/16 22:35:08;;;;;;;19.95;12.60;;;;;;;7.17;51.02;102124.50;8606572;33;20395;-74
2022/04/16 22:45:34;;;;;;;17.92;13.27;;;;;;;7.20;50.62;102110.16;8610954;33;21034;-73
2022/04/16 22:50:37;;;;;;;21.00;13.38;;;;;;;7.16;50.12;102117.44;8607922;33;21531;-74
2022/04/16 22:55:40;;;;;;;19.08;13.30;;;;;;;7.09;50.20;102107.03;8607320;33;20143;-74
2022/04/16 23:00:47;;;;;;;19.15;12.55;;;;;;;6.84;50.64;102108.81;8608341;33;20238;-75
2022/04/16 23:05:54;;;;;;;17.75;13.10;;;;;;;6.67;50.97;102111.25;8603653;33;21103;-73
2022/04/16 23:10:57;;;;;;;19.35;12.18;;;;;;;6.69;50.96;102100.50;8603601;33;20444;-74
2022/04/16 23:21:23;;;;;;;17.05;12.88;;;;;;;6.61;50.28;102099.00;8604289;33;20384;-73
2022/04/16 23:26:26;;;;;;;17.00;12.90;;;;;;;6.53;50.35;102095.75;8603642;33;20519;-73
2022/04/16 23:31:31;;;;;;;16.08;12.35;;;;;;;6.47;50.67;102098.63;8605609;33;20254;-74
2022/04/16 23:36:35;;;;;;;17.70;12.45;;;;;;;6.33;50.82;102087.56;8601360;33;20574;-73
2022/04/16 23:41:38;;;;;;;16.95;13.32;;;;;;;6.31;50.96;102094.78;8602457;33;20207;-72
2022/04/16 23:46:57;;;;;;;19.83;12.85;;;;;;;6.21;51.01;102088.91;8601171;33;20431;-74
2022/04/16 23:52:01;;;;;;;18.27;12.30;;;;;;;6.13;51.48;102086.50;8601681;33;20265;-73
2022/04/16 23:57:04;;;;;;;16.58;11.85;;;;;;;6.02;52.18;102088.66;8604472;33;20925;-74
